createdAt,value
2022-10-04T00:05:22.669Z,3.65
2022-10-04T00:07:56.455Z,4.30
2022-10-04T00:10:31.429Z,4.00
2022-10-04T00:15:51.981Z,4.70
2022-10-04T00:18:44.574Z,5.07
2022-10-04T00:21:11.487Z,4.55
2022-10-04T00:26:27.927Z,4.43
2022-10-04T00:32:12.507Z,5.15
2022-10-04T00:34:48.404Z,4.80
2022-10-04T00:40:10.274Z,4.85
2022-10-04T00:42:55.955Z,4.72
2022-10-04T00:45:37.185Z,5.27
2022-10-04T00:48:30.430Z,5.97
2022-10-04T00:51:30.762Z,5.50
2022-10-04T00:54:13.109Z,6.30
2022-10-04T00:56:55.310Z,7.20
2022-10-04T00:59:29.250Z,7.30
2022-10-04T01:02:17.253Z,7.70
2022-10-04T01:04:53.107Z,8.70
2022-10-04T01:07:27.970Z,8.63
2022-10-04T01:10:02.982Z,9.00
2022-10-04T01:12:39.295Z,9.40
2022-10-04T01:15:13.295Z,9.40
2022-10-04T01:17:40.405Z,9.48
2022-10-04T01:20:34.650Z,9.00
2022-10-04T01:23:03.705Z,9.65
2022-10-04T01:25:45.126Z,9.65
2022-10-04T01:28:12.126Z,10.20
2022-10-04T01:30:39.110Z,9.60
2022-10-04T01:33:06.642Z,9.97
2022-10-04T01:35:34.161Z,10.60
2022-10-04T01:38:02.699Z,10.70
2022-10-04T01:40:30.788Z,11.00
2022-10-04T01:43:05.025Z,10.48
2022-10-04T01:45:48.595Z,10.43
2022-10-04T01:48:18.973Z,10.93
2022-10-04T01:51:13.184Z,10.77
2022-10-04T01:53:49.919Z,11.20
2022-10-04T01:56:23.880Z,9.30
2022-10-04T01:58:54.396Z,9.90
2022-10-04T02:01:27.550Z,9.60
2022-10-04T02:04:10.124Z,9.65
2022-10-04T02:06:43.409Z,9.48
2022-10-04T02:09:14.818Z,9.18
2022-10-04T02:11:44.630Z,9.10
2022-10-04T02:14:17.350Z,8.50
2022-10-04T02:16:46.929Z,9.10
2022-10-04T02:21:42.870Z,8.40
2022-10-04T02:24:10.314Z,7.80
2022-10-04T02:29:23.840Z,7.50
2022-10-04T02:34:40.105Z,7.05
2022-10-04T02:43:44.101Z,8.32
2022-10-04T02:46:47.373Z,8.00
2022-10-04T02:49:27.572Z,7.93
2022-10-04T02:52:10.039Z,8.40
2022-10-04T02:54:55.761Z,8.00
2022-10-04T02:57:23.837Z,7.22
2022-10-04T02:59:51.496Z,7.67
2022-10-04T03:02:30.582Z,7.75
2022-10-04T03:05:04.841Z,7.60
2022-10-04T03:07:34.477Z,7.50
2022-10-04T03:10:02.727Z,7.50
2022-10-04T03:12:29.668Z,9.30
2022-10-04T03:14:56.445Z,9.45
2022-10-04T03:20:12.886Z,8.05
2022-10-04T03:22:46.122Z,8.80
2022-10-04T03:25:30.114Z,7.75
2022-10-04T03:28:01.211Z,8.60
2022-10-04T03:30:28.318Z,9.93
2022-10-04T03:32:55.354Z,10.73
2022-10-04T03:35:35.460Z,10.70
2022-10-04T03:38:06.743Z,10.30
2022-10-04T03:43:24.266Z,10.70
2022-10-04T03:48:43.669Z,12.10
2022-10-04T03:51:16.599Z,12.55
2022-10-04T03:53:47.274Z,13.45
2022-10-04T03:59:07.428Z,13.63
2022-10-04T04:01:45.393Z,14.20
2022-10-04T04:04:12.246Z,13.10
2022-10-04T04:06:57.863Z,13.90
2022-10-04T04:09:44.902Z,14.23
2022-10-04T04:12:18.838Z,14.45
2022-10-04T04:14:50.627Z,14.27
2022-10-04T04:29:53.175Z,15.60
2022-10-04T04:32:41.481Z,13.30
2022-10-04T04:38:20.766Z,14.73
2022-10-04T04:40:47.934Z,16.13
2022-10-04T04:43:19.256Z,15.50
2022-10-04T04:46:28.235Z,0
2022-10-04T04:51:24.898Z,17.35
2022-10-04T04:56:19.307Z,0
2022-10-04T04:56:42.353Z,24.45
2022-10-04T04:59:09.246Z,17.38
2022-10-04T05:01:44.675Z,16.98
2022-10-04T05:04:11.787Z,17.45
2022-10-04T05:07:00.066Z,18.77
2022-10-04T05:09:31.165Z,17.50
2022-10-04T05:12:22.884Z,20.30
2022-10-04T05:14:52.157Z,18.50
2022-10-04T05:20:17.834Z,19.88
2022-10-04T05:22:48.600Z,18.90
2022-10-04T05:25:31.689Z,20.35
2022-10-04T05:27:58.567Z,20.08
2022-10-04T05:30:37.057Z,19.73
2022-10-04T05:33:08.233Z,21.50
2022-10-04T05:35:53.483Z,21.95
2022-10-04T05:38:26.711Z,22.92
2022-10-04T05:41:01.304Z,37.00
2022-10-04T05:43:46.514Z,23.50
2022-10-04T05:46:15.894Z,21.92
2022-10-04T05:48:44.121Z,22.85
2022-10-04T05:51:32.207Z,22.55
2022-10-04T05:54:01.815Z,20.80
2022-10-04T05:56:31.266Z,20.20
2022-10-04T05:59:19.553Z,19.65
2022-10-04T06:02:13.541Z,21.95
2022-10-04T06:04:53.143Z,25.13
2022-10-04T06:07:33.659Z,28.05
2022-10-04T06:10:24.069Z,20.45
2022-10-04T06:13:11.772Z,18.55
2022-10-04T06:15:50.351Z,13.88
2022-10-04T06:18:36.428Z,13.65
2022-10-04T06:21:15.193Z,14.13
2022-10-04T06:26:48.168Z,23.15
2022-10-04T06:29:19.017Z,16.30
2022-10-04T06:31:55.366Z,13.90
2022-10-04T06:53:14.928Z,9.73
2022-10-04T06:55:56.368Z,9.70
2022-10-04T06:58:47.821Z,8.17
2022-10-04T07:01:17.605Z,7.90
2022-10-04T07:03:55.123Z,8.20
2022-10-04T07:06:30.303Z,15.18
2022-10-04T07:09:00.094Z,11.83
2022-10-04T07:14:36.693Z,8.60
2022-10-04T07:17:10.034Z,7.38
2022-10-04T07:19:42.149Z,6.40
2022-10-04T07:28:07.924Z,6.30
2022-10-04T07:33:06.855Z,9.30
2022-10-04T07:35:46.541Z,4.32
2022-10-04T07:38:13.204Z,5.00
2022-10-04T07:41:22.658Z,4.30
2022-10-04T07:44:26.320Z,4.60
2022-10-04T07:47:00.214Z,4.10
2022-10-04T07:49:27.774Z,4.10
2022-10-04T07:52:18.511Z,3.80
2022-10-04T07:57:41.180Z,9.15
2022-10-04T08:00:17.564Z,4.50
2022-10-04T08:02:50.291Z,4.35
2022-10-04T08:08:43.668Z,3.00
2022-10-04T08:11:16.250Z,3.45
2022-10-04T08:14:01.445Z,3.78
2022-10-04T08:16:49.138Z,3.20
2022-10-04T08:19:21.757Z,3.10
2022-10-04T08:22:11.718Z,3.00
2022-10-04T08:25:22.712Z,2.95
2022-10-04T08:28:14.356Z,2.80
2022-10-04T08:31:07.528Z,2.63
2022-10-04T08:33:49.324Z,2.95
2022-10-04T08:36:40.624Z,3.15
2022-10-04T08:39:37.005Z,9.50
2022-10-04T08:42:36.240Z,2.90
2022-10-04T08:45:21.939Z,2.95
2022-10-04T08:48:16.208Z,2.90
2022-10-04T08:51:18.128Z,2.53
2022-10-04T08:57:16.297Z,4.40
2022-10-04T09:00:01.400Z,2.70
2022-10-04T09:02:49.370Z,2.90
2022-10-04T09:09:10.037Z,2.60
2022-10-04T09:15:00.532Z,3.10
2022-10-04T09:17:42.356Z,2.70
2022-10-04T09:20:37.925Z,3.13
2022-10-04T09:23:25.461Z,2.50
2022-10-04T09:26:21.115Z,2.73
2022-10-04T09:35:39.538Z,3.00
2022-10-04T09:38:27.315Z,3.42
2022-10-04T09:41:06.226Z,3.13
2022-10-04T09:46:56.888Z,3.00
2022-10-04T09:49:35.670Z,3.10
2022-10-04T09:55:24.198Z,3.37
2022-10-04T09:58:26.308Z,3.00
2022-10-04T10:01:09.383Z,3.20
2022-10-04T10:03:51.150Z,3.00
2022-10-04T10:06:33.943Z,3.28
2022-10-04T10:12:25.334Z,3.70
2022-10-04T10:15:18.260Z,3.55
2022-10-04T10:18:26.932Z,4.68
2022-10-04T10:27:37.240Z,3.60
2022-10-04T10:30:13.370Z,3.40
2022-10-04T10:33:00.355Z,3.30
2022-10-04T10:35:29.889Z,3.60
2022-10-04T10:38:04.911Z,3.47
2022-10-04T10:41:20.086Z,3.40
2022-10-04T10:44:22.410Z,3.40
2022-10-04T10:47:35.194Z,3.20
2022-10-04T10:50:26.951Z,3.50
2022-10-04T10:53:12.362Z,3.30
2022-10-04T10:55:58.310Z,3.00
2022-10-04T11:02:48.655Z,4.00
2022-10-04T11:05:37.245Z,3.67
2022-10-04T11:08:18.924Z,3.40
2022-10-04T11:10:52.118Z,3.33
2022-10-04T11:13:40.549Z,3.60
2022-10-04T11:16:46.699Z,2.75
2022-10-04T11:19:37.747Z,3.67
2022-10-04T11:22:40.053Z,3.60
2022-10-04T11:25:23.726Z,3.50
2022-10-04T11:28:32.665Z,3.55
2022-10-04T11:29:03.799Z,0
2022-10-04T11:30:59.460Z,2.70
2022-10-04T11:33:42.437Z,3.50
2022-10-04T11:36:50.543Z,3.40
2022-10-04T11:39:31.419Z,3.22
2022-10-04T11:42:01.102Z,3.50
2022-10-04T11:44:39.583Z,3.50
2022-10-04T11:47:30.387Z,3.10
2022-10-04T11:49:59.927Z,3.50
2022-10-04T11:52:48.203Z,3.20
2022-10-04T11:55:49.936Z,3.28
2022-10-04T11:58:46.266Z,3.10
2022-10-04T12:04:54.938Z,3.10
2022-10-04T12:07:27.587Z,2.90
2022-10-04T12:10:24.758Z,2.97
2022-10-04T12:13:10.031Z,3.00
2022-10-04T12:15:39.466Z,2.63
2022-10-04T12:21:58.159Z,2.80
2022-10-04T12:25:09.169Z,3.25
2022-10-04T12:27:57.593Z,2.60
2022-10-04T12:30:24.291Z,2.80
2022-10-04T12:33:20.395Z,2.30
2022-10-04T12:36:25.527Z,2.80
2022-10-04T12:39:03.821Z,2.50
2022-10-04T12:42:00.673Z,2.50
2022-10-04T12:44:58.139Z,2.60
2022-10-04T12:47:30.754Z,2.90
2022-10-04T12:50:04.132Z,2.40
2022-10-04T12:52:43.254Z,2.70
2022-10-04T12:55:21.056Z,2.70
2022-10-04T12:57:55.177Z,3.20
2022-10-04T13:00:24.533Z,3.75
2022-10-04T13:03:22.424Z,2.70
2022-10-04T13:06:19.141Z,2.92
2022-10-04T13:08:51.248Z,2.60
2022-10-04T13:14:31.783Z,2.70
2022-10-04T13:17:32.695Z,2.20
2022-10-04T13:17:37.402Z,0
2022-10-04T13:20:33.223Z,2.25
2022-10-04T13:23:04.364Z,2.60
2022-10-04T13:26:03.770Z,2.65
2022-10-04T13:28:49.695Z,2.40
2022-10-04T13:31:19.261Z,2.70
2022-10-04T13:34:09.534Z,2.40
2022-10-04T13:36:54.091Z,2.47
2022-10-04T13:39:26.722Z,2.80
2022-10-04T13:45:26.785Z,2.40
2022-10-04T13:48:00.870Z,2.38
2022-10-04T13:50:46.223Z,2.58
2022-10-04T13:53:37.067Z,2.20
2022-10-04T13:56:09.577Z,2.20
2022-10-04T13:58:47.674Z,2.20
2022-10-04T14:01:41.383Z,2.35
2022-10-04T14:04:31.211Z,2.45
2022-10-04T14:07:06.701Z,2.65
2022-10-04T14:10:05.927Z,3.13
2022-10-04T14:12:49.428Z,2.60
2022-10-04T14:19:17.061Z,2.40
2022-10-04T14:25:29.306Z,1.80
2022-10-04T14:28:14.874Z,2.00
2022-10-04T14:31:21.305Z,1.95
2022-10-04T14:34:25.683Z,1.98
2022-10-04T14:37:22.956Z,2.00
2022-10-04T14:40:16.569Z,1.90
2022-10-04T14:43:07.981Z,1.50
2022-10-04T14:45:59.938Z,1.77
2022-10-04T14:48:51.631Z,2.10
2022-10-04T14:51:55.045Z,1.60
2022-10-04T14:54:24.829Z,1.60
2022-10-04T14:56:59.811Z,1.60
2022-10-04T14:59:41.293Z,1.83
2022-10-04T15:05:37.548Z,2.00
2022-10-04T15:08:22.375Z,2.08
2022-10-04T15:11:04.137Z,1.80
2022-10-04T15:13:24.029Z,0
2022-10-04T15:13:52.090Z,1.90
2022-10-04T15:16:46.848Z,1.85
2022-10-04T15:19:57.914Z,2.10
2022-10-04T15:22:30.081Z,2.00
2022-10-04T15:24:57.041Z,2.20
2022-10-04T15:27:41.415Z,1.67
2022-10-04T15:28:16.010Z,0
2022-10-04T15:30:54.058Z,2.05
2022-10-04T15:33:32.960Z,1.92
2022-10-04T15:36:08.601Z,1.90
2022-10-04T15:38:38.365Z,2.08
2022-10-04T15:41:25.933Z,2.27
2022-10-04T15:47:07.992Z,1.88
2022-10-04T15:49:48.216Z,1.90
2022-10-04T15:52:37.984Z,1.77
2022-10-04T15:55:21.004Z,1.90
2022-10-04T15:57:47.689Z,2.00
2022-10-04T16:00:25.771Z,2.00
2022-10-04T16:03:07.900Z,1.90
2022-10-04T16:06:01.524Z,2.00
2022-10-04T16:08:43.158Z,1.90
2022-10-04T16:11:09.847Z,2.40
2022-10-04T16:14:01.023Z,2.00
2022-10-04T16:16:39.746Z,1.77
2022-10-04T16:21:48.140Z,2.00
2022-10-04T16:24:42.132Z,2.10
2022-10-04T16:27:49.347Z,2.50
2022-10-04T16:30:26.594Z,3.10
2022-10-04T16:33:20.044Z,3.63
2022-10-04T16:36:02.009Z,3.67
2022-10-04T16:38:34.782Z,2.42
2022-10-04T16:44:03.868Z,2.22
2022-10-04T16:46:37.450Z,2.35
2022-10-04T16:49:24.929Z,1.98
2022-10-04T16:52:27.082Z,1.80
2022-10-04T16:55:25.158Z,2.40
2022-10-04T16:58:28.611Z,1.70
2022-10-04T17:04:19.073Z,1.60
2022-10-04T17:06:59.214Z,2.00
2022-10-04T17:09:40.979Z,1.90
2022-10-04T17:12:26.300Z,1.88
2022-10-04T17:15:33.776Z,2.35
2022-10-04T17:18:11.299Z,2.30
2022-10-04T17:20:43.920Z,1.63
2022-10-04T17:23:24.335Z,2.20
2022-10-04T17:29:43.804Z,1.80
2022-10-04T17:32:19.554Z,1.95
2022-10-04T17:35:16.924Z,1.70
2022-10-04T17:38:11.255Z,2.00
2022-10-04T17:41:03.987Z,1.98
2022-10-04T17:44:17.167Z,1.70
2022-10-04T17:46:48.982Z,2.10
2022-10-04T17:49:28.212Z,1.80
2022-10-04T17:54:52.250Z,2.10
2022-10-04T17:57:48.295Z,2.10
2022-10-04T18:03:19.117Z,2.72
2022-10-04T18:05:58.446Z,2.20
2022-10-04T18:08:41.425Z,2.05
2022-10-04T18:11:20.872Z,2.10
2022-10-04T18:14:00.669Z,2.00
2022-10-04T18:16:45.990Z,1.75
2022-10-04T18:19:51.498Z,1.95
2022-10-04T18:22:24.539Z,2.13
2022-10-04T18:25:15.304Z,2.50
2022-10-04T18:28:00.213Z,2.20
2022-10-04T18:30:27.016Z,2.35
2022-10-04T18:32:57.247Z,4.63
2022-10-04T18:38:22.287Z,2.03
2022-10-04T18:40:56.229Z,2.80
2022-10-04T18:43:40.932Z,2.50
2022-10-04T18:46:13.724Z,2.08
2022-10-04T18:48:43.361Z,1.92
2022-10-04T18:51:38.562Z,2.30
2022-10-04T18:54:31.458Z,2.30
2022-10-04T18:57:16.519Z,2.17
2022-10-04T18:59:58.825Z,3.03
2022-10-04T19:02:37.739Z,2.80
2022-10-04T19:05:14.962Z,2.25
2022-10-04T19:08:10.582Z,2.20
2022-10-04T19:10:51.421Z,2.40
2022-10-04T19:13:41.864Z,2.45
2022-10-04T19:16:35.985Z,2.30
2022-10-04T19:19:28.438Z,2.28
2022-10-04T19:22:31.876Z,2.70
2022-10-04T19:25:16.433Z,2.30
2022-10-04T19:27:50.576Z,2.30
2022-10-04T19:30:19.871Z,2.72
2022-10-04T19:33:06.102Z,2.65
2022-10-04T19:35:41.663Z,2.30
2022-10-04T19:38:27.864Z,2.97
2022-10-04T19:40:59.407Z,2.58
2022-10-04T19:43:39.087Z,2.70
2022-10-04T19:46:17.837Z,2.90
2022-10-04T19:51:48.920Z,2.90
2022-10-04T19:54:21.836Z,2.95
2022-10-04T19:56:50.629Z,3.00
2022-10-04T19:59:39.706Z,4.60
2022-10-04T20:02:10.218Z,3.00
2022-10-04T20:07:27.263Z,3.10
2022-10-04T20:10:07.421Z,3.20
2022-10-04T20:12:37.207Z,3.00
2022-10-04T20:15:33.098Z,2.80
2022-10-04T20:17:59.825Z,2.87
2022-10-04T20:20:38.441Z,2.92
2022-10-04T20:23:06.754Z,3.80
2022-10-04T20:28:32.333Z,3.70
2022-10-04T20:33:49.376Z,3.00
2022-10-04T20:36:22.118Z,2.60
2022-10-04T20:38:56.157Z,3.25
2022-10-04T20:41:28.749Z,2.90
2022-10-04T20:46:50.868Z,2.70
2022-10-04T20:49:18.370Z,2.90
2022-10-04T20:51:49.513Z,2.92
2022-10-04T20:54:20.681Z,3.20
2022-10-04T20:56:50.017Z,3.47
2022-10-04T20:59:17.656Z,3.25
2022-10-04T21:04:47.857Z,4.18
2022-10-04T21:10:15.698Z,3.33
2022-10-04T21:12:42.708Z,3.28
2022-10-04T21:15:20.274Z,3.40
2022-10-04T21:18:09.150Z,3.30
2022-10-04T21:20:41.576Z,3.72
2022-10-04T21:23:27.150Z,3.47
2022-10-04T21:26:23.610Z,3.40
2022-10-04T21:28:54.666Z,3.65
2022-10-04T21:31:21.454Z,3.33
2022-10-04T21:33:48.291Z,3.40
2022-10-04T21:39:01.627Z,3.30
2022-10-04T21:44:15.002Z,3.20
2022-10-04T21:49:28.572Z,3.25
2022-10-04T21:54:42.043Z,3.33
2022-10-04T21:57:08.846Z,3.57
2022-10-04T21:59:35.567Z,3.60
2022-10-04T22:02:02.389Z,3.50
2022-10-04T22:04:29.136Z,3.50
2022-10-04T22:06:55.968Z,3.20
2022-10-04T22:09:22.690Z,3.75
2022-10-04T22:11:49.423Z,3.38
2022-10-04T22:17:02.878Z,3.80
2022-10-04T22:22:17.047Z,3.50
2022-10-04T22:24:43.797Z,3.78
2022-10-04T22:27:15.383Z,3.70
2022-10-04T22:29:42.987Z,4.10
2022-10-04T22:32:18.237Z,3.60
2022-10-04T22:34:45.268Z,3.97
2022-10-04T22:37:12.260Z,3.97
2022-10-04T22:39:39.326Z,4.30
2022-10-04T22:42:06.238Z,4.00
2022-10-04T22:44:37.767Z,3.90
2022-10-04T22:49:31.844Z,0
2022-10-04T22:49:57.700Z,3.90
2022-10-04T22:52:25.739Z,3.90
2022-10-04T22:54:55.595Z,4.20
2022-10-04T22:57:22.297Z,3.70
2022-10-04T22:59:51.229Z,3.60
2022-10-04T23:02:21.057Z,3.88
2022-10-04T23:04:56.697Z,3.77
2022-10-04T23:09:50.439Z,4.10
2022-10-04T23:12:17.410Z,3.70
2022-10-04T23:14:44.222Z,4.10
2022-10-04T23:17:33.624Z,4.23
2022-10-04T23:20:14.203Z,4.28
2022-10-04T23:22:47.511Z,4.05
2022-10-04T23:25:32.723Z,3.70
2022-10-04T23:28:05.902Z,3.90
2022-10-04T23:30:32.703Z,4.07
2022-10-04T23:33:00.999Z,4.30
2022-10-04T23:35:32.745Z,4.20
2022-10-04T23:40:47.941Z,4.20
2022-10-04T23:43:21.443Z,4.60
2022-10-04T23:45:48.471Z,4.00
2022-10-04T23:48:22.792Z,4.00
2022-10-04T23:50:50.194Z,4.18
2022-10-04T23:53:28.223Z,4.10
2022-10-04T23:58:43.615Z,4.20
